logo
Search for airport 
image banner adimage banner adimage banner ad
image banner ad

ESSA - Stockholm/Arlanda

Located in Stockholm, Sweden

ICAO - ESSA, IATA - ARN

Data provided by Airmate  

General information

Coordinates: N59°39'7" E17°55'7"
Elevation is 138 feet MSL.
Magnetic variation is +6.0° East
Rated:
View ratings:
[VIEW]
View others Airports in Stockholms län

Operational data

Special qualification required
Current time UTC:
Current local time:
Weather
METAR: ESSA 200820Z 35013KT 9999 BKN030 M00/M07 Q1010 NOSIG
TAF: TAF ESSA 200530Z 2006/2106 32010KT 9999 -SN OVC025
View NOTAMs / SUP AIP / TFR affecting this airport [VIEW]
Communications frequencies: [VIEW]

Runways:

RWY identifierQFULength (ft)Width (ft)SurfaceLDA (ft)
0876°8202148ASPH8202
26256°8202148ASPH8202
01L10°10830148ASPH10830
19R190°10830148ASPH10830
01R10°8202148ASPH8202
19L190°8202148ASPH8202

Airport contact information

Address: Stockholm Sweden

Other aviation service providers

Aviation club (not for profit)

Helicopter Assistance I Stockholm Ab

Helicopter Assistance I Stockholm Ab

Satellite view of ESSA